Time;durP1;ratioP1;P1;durP2;ratioP2;P2;SDS_P1;SDS_P2;PMS_P1;PMS_P2;Temp;Humidity;BMP_temperature;BMP_pressure;BME280_temperature;BME280_humidity;BME280_pressure;Samples;Min_cycle;Max_cycle;Signal;HPM_P1;HPM_P2
2022/06/05 00:02:24;;;;;;;7.72;5.75;;;;;;;;;;5087695;28;20135;-87
2022/06/05 00:05:02;;;;;;;7.65;5.50;;;;;;;;;;5090924;28;20019;-87
2022/06/05 00:07:47;;;;;;;8.52;5.93;;;;;;;;;;5087224;28;20024;-88
2022/06/05 00:10:22;;;;;;;7.93;5.75;;;;;;;;;;5089826;28;20077;-87
2022/06/05 00:12:59;;;;;;;9.30;5.32;;;;;;;;;;5088772;28;20036;-87
2022/06/05 00:15:25;;;;;;;8.60;5.65;;;;;;;;;;5089790;28;20028;-87
2022/06/05 00:17:50;;;;;;;7.95;5.47;;;;;;;;;;5091401;28;20027;-88
2022/06/05 00:20:16;;;;;;;7.30;5.65;;;;;;;;;;5091202;28;20020;-90
2022/06/05 00:22:42;;;;;;;7.68;5.45;;;;;;;;;;5090363;28;20020;-88
2022/06/05 00:25:09;;;;;;;8.82;5.97;;;;;;;;;;5091927;28;20028;-88
2022/06/05 00:27:52;;;;;;;6.80;5.75;;;;;;;;;;5089204;28;20027;-86
2022/06/05 00:30:21;;;;;;;8.93;5.65;;;;;;;;;;5088091;28;20031;-88
2022/06/05 00:33:29;;;;;;;9.73;5.95;;;;;;;;;;5089335;28;20048;-87
2022/06/05 00:36:01;;;;;;;13.70;5.90;;;;;;;;;;5089225;28;20035;-88
2022/06/05 00:38:56;;;;;;;8.90;6.18;;;;;;;;;;5091528;28;20475;-88
2022/06/05 00:41:51;;;;;;;7.95;5.47;;;;;;;;;;5079294;28;20070;-88
2022/06/05 00:44:23;;;;;;;10.13;5.80;;;;;;;;;;5084029;28;20849;-87
2022/06/05 00:46:50;;;;;;;9.15;5.47;;;;;;;;;;5090184;28;20468;-86
2022/06/05 00:49:17;;;;;;;9.38;5.63;;;;;;;;;;5090406;28;20016;-87
2022/06/05 00:51:42;;;;;;;8.52;5.47;;;;;;;;;;5090032;28;20031;-88
2022/06/05 00:54:09;;;;;;;7.20;6.03;;;;;;;;;;5090578;28;20024;-88
2022/06/05 00:56:36;;;;;;;11.45;6.03;;;;;;;;;;5091551;28;20028;-88
2022/06/05 00:59:02;;;;;;;9.88;6.60;;;;;;;;;;5090543;28;20048;-88
2022/06/05 01:01:27;;;;;;;8.90;5.95;;;;;;;;;;5091685;28;20113;-90
2022/06/05 01:04:00;;;;;;;9.07;5.97;;;;;;;;;;5089995;28;20048;-88
2022/06/05 01:06:26;;;;;;;10.10;6.63;;;;;;;;;;5089880;28;20119;-89
2022/06/05 01:08:51;;;;;;;11.50;6.10;;;;;;;;;;5091259;28;20031;-88
2022/06/05 01:11:27;;;;;;;6.68;5.68;;;;;;;;;;5089939;28;20106;-86
2022/06/05 01:14:04;;;;;;;11.27;5.97;;;;;;;;;;5088452;28;20471;-86
2022/06/05 01:16:33;;;;;;;8.70;5.47;;;;;;;;;;5090963;28;20490;-87
2022/06/05 01:19:04;;;;;;;8.95;5.60;;;;;;;;;;5091044;28;20489;-87
2022/06/05 01:21:42;;;;;;;9.05;6.15;;;;;;;;;;5090917;28;20046;-88
2022/06/05 01:24:19;;;;;;;7.75;5.22;;;;;;;;;;5090130;28;20519;-88
2022/06/05 01:26:51;;;;;;;9.13;5.80;;;;;;;;;;5089640;28;20054;-86
2022/06/05 01:29:16;;;;;;;9.68;5.50;;;;;;;;;;5088636;28;20024;-87
2022/06/05 01:31:48;;;;;;;8.98;5.85;;;;;;;;;;5092888;28;20530;-87
2022/06/05 01:34:43;;;;;;;10.75;5.93;;;;;;;;;;5092976;28;20036;-86
2022/06/05 01:37:18;;;;;;;9.48;5.93;;;;;;;;;;5092793;28;20115;-89
2022/06/05 01:39:52;;;;;;;13.05;6.28;;;;;;;;;;5089688;28;20039;-87
2022/06/05 01:42:35;;;;;;;11.98;6.53;;;;;;;;;;5091468;28;20480;-88
2022/06/05 01:45:05;;;;;;;8.57;5.40;;;;;;;;;;5092785;28;20058;-89
2022/06/05 01:47:37;;;;;;;7.32;5.55;;;;;;;;;;5093642;28;20028;-87
2022/06/05 01:50:08;;;;;;;7.22;5.95;;;;;;;;;;5090068;28;20027;-87
2022/06/05 01:52:46;;;;;;;11.77;6.13;;;;;;;;;;5091177;28;20070;-88
2022/06/05 01:55:27;;;;;;;9.63;6.60;;;;;;;;;;5094431;28;20016;-87
2022/06/05 01:57:57;;;;;;;9.82;6.57;;;;;;;;;;5093059;28;20031;-89
2022/06/05 02:00:23;;;;;;;12.75;6.45;;;;;;;;;;5094742;28;20027;-87
2022/06/05 02:02:48;;;;;;;8.70;6.10;;;;;;;;;;5090117;28;20043;-89
2022/06/05 02:05:20;;;;;;;9.82;6.65;;;;;;;;;;5092939;28;20016;-89
2022/06/05 02:07:48;;;;;;;8.63;6.13;;;;;;;;;;5092212;28;20700;-88
2022/06/05 02:10:24;;;;;;;9.15;6.28;;;;;;;;;;5092994;28;20028;-88
2022/06/05 02:12:50;;;;;;;9.48;6.07;;;;;;;;;;5095202;28;20059;-89
2022/06/05 02:15:16;;;;;;;11.07;6.30;;;;;;;;;;5094346;28;20024;-88
2022/06/05 02:17:42;;;;;;;9.77;6.80;;;;;;;;;;5094336;28;20030;-88
2022/06/05 02:20:09;;;;;;;8.95;6.45;;;;;;;;;;5088233;28;20078;-89
2022/06/05 02:22:45;;;;;;;10.07;6.07;;;;;;;;;;5093442;28;20028;-88
2022/06/05 02:25:16;;;;;;;8.10;6.15;;;;;;;;;;5087754;28;20476;-87
2022/06/05 02:27:42;;;;;;;16.02;7.18;;;;;;;;;;5088333;28;20035;-88
2022/06/05 02:30:10;;;;;;;12.30;7.25;;;;;;;;;;5093994;28;20023;-90
2022/06/05 02:33:37;;;;;;;8.18;6.68;;;;;;;;;;5091773;28;20043;-86
2022/06/05 02:36:02;;;;;;;11.43;6.78;;;;;;;;;;5033689;28;20044;-88
2022/06/05 02:38:46;;;;;;;11.73;6.20;;;;;;;;;;5091357;28;20085;-87
2022/06/05 02:41:24;;;;;;;12.88;6.93;;;;;;;;;;5094161;28;20028;-88
2022/06/05 02:47:16;;;;;;;11.40;7.00;;;;;;;;;;5093395;28;20046;-88
2022/06/05 02:49:55;;;;;;;11.32;7.45;;;;;;;;;;5090292;28;20028;-88
2022/06/05 02:52:23;;;;;;;14.68;7.82;;;;;;;;;;5089980;28;20475;-88
2022/06/05 02:55:12;;;;;;;8.45;6.20;;;;;;;;;;5093413;28;20031;-87
2022/06/05 02:57:37;;;;;;;9.65;7.07;;;;;;;;;;5093319;28;20361;-86
2022/06/05 03:00:09;;;;;;;10.02;7.03;;;;;;;;;;5093682;28;20031;-86
2022/06/05 03:05:18;;;;;;;9.48;6.97;;;;;;;;;;5092296;28;20404;-86
2022/06/05 03:07:44;;;;;;;11.20;7.55;;;;;;;;;;5093442;28;20024;-87
2022/06/05 03:10:10;;;;;;;10.40;7.10;;;;;;;;;;5087207;28;20039;-87
2022/06/05 03:12:35;;;;;;;11.13;7.72;;;;;;;;;;5090895;28;20024;-89
2022/06/05 03:15:01;;;;;;;9.40;7.03;;;;;;;;;;5091855;28;20043;-86
2022/06/05 03:17:29;;;;;;;9.65;6.97;;;;;;;;;;5093303;28;20028;-89
2022/06/05 03:19:55;;;;;;;12.10;7.60;;;;;;;;;;5092122;28;20115;-87
2022/06/05 03:22:21;;;;;;;9.32;7.10;;;;;;;;;;5093011;28;20020;-87
2022/06/05 03:24:46;;;;;;;16.88;7.75;;;;;;;;;;5091830;28;20403;-88
2022/06/05 03:27:12;;;;;;;9.35;7.40;;;;;;;;;;5093215;28;20023;-87
2022/06/05 03:29:37;;;;;;;9.13;7.00;;;;;;;;;;5091429;28;20038;-88
2022/06/05 03:32:03;;;;;;;14.77;7.40;;;;;;;;;;5092745;28;20044;-88
2022/06/05 03:34:28;;;;;;;14.10;7.95;;;;;;;;;;5091755;28;20419;-87
2022/06/05 03:36:54;;;;;;;12.02;6.93;;;;;;;;;;5092602;28;20035;-88
2022/06/05 03:39:19;;;;;;;11.63;7.18;;;;;;;;;;5091348;28;20077;-89
2022/06/05 03:41:45;;;;;;;8.88;7.15;;;;;;;;;;5091507;28;20083;-88
2022/06/05 03:44:12;;;;;;;8.02;6.65;;;;;;;;;;5091148;28;20388;-87
2022/06/05 03:46:39;;;;;;;9.25;7.45;;;;;;;;;;5090385;28;20036;-88
2022/06/05 03:49:06;;;;;;;14.65;7.65;;;;;;;;;;5092291;28;20464;-89
2022/06/05 03:51:33;;;;;;;12.30;7.32;;;;;;;;;;5092318;28;20028;-87
2022/06/05 03:53:58;;;;;;;11.98;7.07;;;;;;;;;;5087211;28;20047;-87
2022/06/05 03:56:26;;;;;;;8.90;7.40;;;;;;;;;;5091441;28;20475;-88
2022/06/05 03:58:52;;;;;;;8.50;6.80;;;;;;;;;;5091461;28;20528;-89
2022/06/05 04:01:19;;;;;;;12.80;8.70;;;;;;;;;;5092005;28;20658;-90
2022/06/05 04:03:46;;;;;;;9.95;8.18;;;;;;;;;;5090571;28;20035;-89
2022/06/05 04:06:13;;;;;;;11.25;8.43;;;;;;;;;;5087503;28;20035;-87
2022/06/05 04:08:40;;;;;;;11.23;8.13;;;;;;;;;;5086896;28;20501;-87
2022/06/05 04:11:10;;;;;;;12.45;8.75;;;;;;;;;;5089843;28;20166;-88
2022/06/05 04:13:36;;;;;;;15.65;9.35;;;;;;;;;;5092324;28;20107;-91
2022/06/05 04:16:10;;;;;;;10.23;8.00;;;;;;;;;;5091901;28;20129;-87
2022/06/05 04:18:39;;;;;;;12.20;9.18;;;;;;;;;;5085045;28;20369;-88
2022/06/05 04:21:07;;;;;;;10.98;8.75;;;;;;;;;;5090666;28;20391;-88
2022/06/05 04:23:32;;;;;;;12.35;7.90;;;;;;;;;;5089002;28;20494;-88
2022/06/05 04:25:58;;;;;;;10.80;8.60;;;;;;;;;;5092612;28;20024;-87
2022/06/05 04:28:23;;;;;;;11.90;8.82;;;;;;;;;;5088832;28;20043;-86
2022/06/05 04:30:49;;;;;;;13.55;9.13;;;;;;;;;;5092117;28;20020;-88
2022/06/05 04:33:18;;;;;;;12.05;8.55;;;;;;;;;;5092086;28;20047;-85
2022/06/05 04:35:44;;;;;;;16.63;8.43;;;;;;;;;;5092002;28;20035;-88
2022/06/05 04:38:11;;;;;;;11.88;8.27;;;;;;;;;;5091782;28;20761;-88
2022/06/05 04:40:36;;;;;;;13.40;9.18;;;;;;;;;;5090620;28;20536;-87
2022/06/05 04:43:02;;;;;;;13.30;8.30;;;;;;;;;;5091474;28;20107;-87
2022/06/05 04:45:27;;;;;;;11.95;8.73;;;;;;;;;;5086442;28;20031;-87
2022/06/05 04:47:53;;;;;;;19.50;9.63;;;;;;;;;;5089126;28;20024;-88
2022/06/05 04:50:18;;;;;;;16.58;9.73;;;;;;;;;;5090059;28;20024;-89
2022/06/05 04:52:44;;;;;;;15.65;9.68;;;;;;;;;;5089650;28;20042;-86
2022/06/05 04:55:09;;;;;;;14.15;8.35;;;;;;;;;;5088364;28;20073;-88
2022/06/05 04:57:36;;;;;;;20.08;8.52;;;;;;;;;;5091278;28;20061;-85
2022/06/05 05:00:04;;;;;;;10.45;8.57;;;;;;;;;;5086479;28;20020;-86
2022/06/05 05:02:30;;;;;;;13.27;9.40;;;;;;;;;;5090426;28;20103;-85
2022/06/05 05:04:57;;;;;;;12.63;9.85;;;;;;;;;;5088511;28;20480;-85
2022/06/05 05:07:22;;;;;;;16.33;10.00;;;;;;;;;;5088948;28;20099;-87
2022/06/05 05:09:48;;;;;;;16.05;10.80;;;;;;;;;;5094218;28;20157;-87
2022/06/05 05:12:15;;;;;;;13.65;10.02;;;;;;;;;;5091033;28;20031;-86
2022/06/05 05:14:41;;;;;;;15.50;11.43;;;;;;;;;;5094504;28;20076;-88
2022/06/05 05:17:07;;;;;;;15.13;10.02;;;;;;;;;;5087727;28;20020;-87
2022/06/05 05:19:32;;;;;;;15.55;10.57;;;;;;;;;;5095579;28;20031;-88
2022/06/05 05:21:58;;;;;;;12.98;10.07;;;;;;;;;;5090177;28;20028;-85
2022/06/05 05:24:23;;;;;;;16.70;10.50;;;;;;;;;;5093107;28;20108;-84
2022/06/05 05:26:49;;;;;;;15.18;10.82;;;;;;;;;;5089891;28;20055;-84
2022/06/05 05:29:14;;;;;;;14.05;10.35;;;;;;;;;;5094727;28;20451;-83
2022/06/05 05:31:42;;;;;;;13.50;10.00;;;;;;;;;;5093422;28;20114;-85
2022/06/05 05:34:09;;;;;;;13.27;9.57;;;;;;;;;;5094935;28;20048;-84
2022/06/05 05:36:35;;;;;;;14.55;10.00;;;;;;;;;;5089340;28;20047;-83
2022/06/05 05:44:30;;;;;;;12.80;9.43;;;;;;;;;;5086049;28;20108;-84
2022/06/05 05:46:56;;;;;;;15.32;10.15;;;;;;;;;;5092372;28;20028;-84
2022/06/05 05:49:22;;;;;;;12.50;9.88;;;;;;;;;;5092634;28;20027;-85
2022/06/05 05:51:47;;;;;;;12.05;9.55;;;;;;;;;;5094082;28;20016;-84
2022/06/05 05:54:13;;;;;;;12.95;10.65;;;;;;;;;;5089619;28;20039;-84
2022/06/05 05:56:39;;;;;;;16.10;9.40;;;;;;;;;;5089173;28;20052;-84
2022/06/05 05:59:04;;;;;;;15.70;9.60;;;;;;;;;;5092550;28;20063;-83
2022/06/05 06:01:30;;;;;;;11.05;9.50;;;;;;;;;;5089755;28;20063;-85
2022/06/05 06:03:55;;;;;;;13.52;9.52;;;;;;;;;;5094695;28;20471;-85
2022/06/05 06:06:27;;;;;;;12.25;9.35;;;;;;;;;;5092115;28;20068;-85
2022/06/05 06:08:53;;;;;;;14.50;9.68;;;;;;;;;;5089863;28;20423;-84
2022/06/05 06:11:19;;;;;;;14.57;10.63;;;;;;;;;;5093201;28;20028;-85
2022/06/05 06:13:45;;;;;;;14.65;9.75;;;;;;;;;;5089163;28;20478;-83
2022/06/05 06:16:11;;;;;;;17.15;10.65;;;;;;;;;;5091777;28;20107;-84
2022/06/05 06:18:36;;;;;;;11.50;9.63;;;;;;;;;;5092865;28;20031;-84
2022/06/05 06:21:02;;;;;;;13.70;9.38;;;;;;;;;;5092698;28;20411;-85
2022/06/05 06:23:27;;;;;;;10.38;9.00;;;;;;;;;;5091595;28;21688;-83
2022/06/05 06:25:52;;;;;;;12.65;8.98;;;;;;;;;;5093251;28;20035;-87
2022/06/05 06:28:18;;;;;;;10.70;8.85;;;;;;;;;;5091235;28;20026;-83
2022/06/05 06:30:44;;;;;;;10.80;8.82;;;;;;;;;;5093766;28;20020;-87
2022/06/05 06:33:09;;;;;;;12.57;8.50;;;;;;;;;;5093619;28;20084;-85
2022/06/05 06:35:36;;;;;;;10.82;9.13;;;;;;;;;;5091858;28;20035;-84
2022/06/05 06:38:02;;;;;;;11.07;9.13;;;;;;;;;;5090507;28;20027;-83
2022/06/05 06:40:27;;;;;;;10.25;8.77;;;;;;;;;;5089773;28;20472;-86
2022/06/05 06:42:57;;;;;;;9.75;8.48;;;;;;;;;;5090597;28;20027;-88
2022/06/05 06:45:23;;;;;;;11.95;9.18;;;;;;;;;;5092099;28;20154;-84
2022/06/05 06:47:48;;;;;;;10.75;8.80;;;;;;;;;;5093107;28;20074;-84
2022/06/05 06:50:15;;;;;;;12.45;9.35;;;;;;;;;;5089615;28;20548;-86
2022/06/05 06:52:41;;;;;;;14.40;8.80;;;;;;;;;;5086117;28;20023;-83
2022/06/05 06:55:08;;;;;;;12.95;9.48;;;;;;;;;;5090131;28;20028;-86
2022/06/05 06:57:34;;;;;;;11.18;8.57;;;;;;;;;;5093183;28;20036;-86
2022/06/05 06:59:59;;;;;;;13.73;9.15;;;;;;;;;;5090561;28;20384;-84
2022/06/05 07:02:25;;;;;;;13.82;9.90;;;;;;;;;;5092852;28;20378;-88
2022/06/05 07:04:50;;;;;;;12.20;9.05;;;;;;;;;;5087849;28;20031;-86
2022/06/05 07:07:16;;;;;;;12.18;9.48;;;;;;;;;;5092492;28;20028;-84
2022/06/05 07:09:41;;;;;;;10.93;8.98;;;;;;;;;;5089679;28;20028;-85
2022/06/05 07:12:07;;;;;;;11.50;9.75;;;;;;;;;;5091940;28;20035;-86
2022/06/05 07:14:32;;;;;;;10.68;9.38;;;;;;;;;;5090813;28;20031;-86
2022/06/05 07:16:58;;;;;;;11.43;9.07;;;;;;;;;;5092400;28;20024;-88
2022/06/05 07:19:23;;;;;;;11.93;8.43;;;;;;;;;;5091088;28;20031;-85
2022/06/05 07:21:49;;;;;;;11.55;8.02;;;;;;;;;;5091328;28;20027;-87
2022/06/05 07:24:16;;;;;;;12.15;8.18;;;;;;;;;;5088257;28;20065;-89
2022/06/05 07:26:43;;;;;;;8.85;6.93;;;;;;;;;;5091019;28;20040;-89
2022/06/05 07:29:08;;;;;;;9.55;6.97;;;;;;;;;;5088511;28;20023;-88
2022/06/05 07:31:34;;;;;;;12.32;9.15;;;;;;;;;;5088181;28;20043;-86
2022/06/05 07:34:00;;;;;;;11.18;7.35;;;;;;;;;;5089798;28;20032;-84
2022/06/05 07:36:27;;;;;;;10.45;7.03;;;;;;;;;;5088800;28;20103;-89
2022/06/05 07:38:53;;;;;;;9.45;6.93;;;;;;;;;;5087590;28;20063;-86
2022/06/05 07:41:20;;;;;;;7.68;6.90;;;;;;;;;;5089094;28;20038;-85
2022/06/05 07:43:46;;;;;;;8.88;7.13;;;;;;;;;;5090025;28;20093;-84
2022/06/05 07:46:12;;;;;;;8.25;6.57;;;;;;;;;;5089624;28;20032;-83
2022/06/05 07:48:38;;;;;;;9.68;6.88;;;;;;;;;;5090806;28;20030;-84
2022/06/05 07:56:36;;;;;;;8.70;6.22;;;;;;;;;;5087212;28;20473;-84
2022/06/05 07:59:02;;;;;;;10.02;7.40;;;;;;;;;;5087797;28;20059;-85
2022/06/05 08:01:27;;;;;;;38.47;30.38;;;;;;;;;;5089534;28;20479;-87
2022/06/05 08:03:53;;;;;;;8.93;7.55;;;;;;;;;;5092076;28;20038;-86
2022/06/05 08:06:18;;;;;;;8.02;6.90;;;;;;;;;;5090031;28;20036;-87
2022/06/05 08:08:44;;;;;;;8.50;6.55;;;;;;;;;;5088869;28;20074;-88
2022/06/05 08:11:10;;;;;;;8.23;6.32;;;;;;;;;;5089864;28;20087;-85
2022/06/05 08:13:35;;;;;;;7.20;5.88;;;;;;;;;;5085703;28;20047;-87
2022/06/05 08:16:01;;;;;;;9.05;5.57;;;;;;;;;;5092357;28;20027;-87
2022/06/05 08:18:26;;;;;;;7.25;5.60;;;;;;;;;;5091455;28;20071;-87
2022/06/05 08:20:52;;;;;;;7.32;5.20;;;;;;;;;;5089398;28;20113;-86
2022/06/05 08:23:17;;;;;;;7.18;5.25;;;;;;;;;;5088865;28;20027;-86
2022/06/05 08:25:43;;;;;;;6.32;5.40;;;;;;;;;;5089103;28;20032;-88
2022/06/05 08:28:10;;;;;;;25.27;21.75;;;;;;;;;;5082740;28;20048;-85
2022/06/05 08:30:38;;;;;;;7.50;6.15;;;;;;;;;;5085806;28;20527;-85
2022/06/05 08:33:04;;;;;;;5.80;5.20;;;;;;;;;;5089073;28;20442;-84
2022/06/05 08:35:29;;;;;;;10.82;6.05;;;;;;;;;;5089514;28;20023;-86
2022/06/05 08:44:09;;;;;;;6.97;5.07;;;;;;;;;;5089933;28;20462;-86
2022/06/05 08:46:48;;;;;;;6.32;4.57;;;;;;;;;;5059258;28;20047;-86
2022/06/05 08:49:32;;;;;;;8.32;4.95;;;;;;;;;;5091481;28;20028;-85
2022/06/05 08:52:05;;;;;;;5.15;4.35;;;;;;;;;;5117233;27;20380;-85
2022/06/05 08:54:42;;;;;;;4.70;3.70;;;;;;;;;;5089379;28;20051;-86
2022/06/05 08:57:17;;;;;;;5.78;4.55;;;;;;;;;;5089174;28;20043;-86
2022/06/05 08:59:55;;;;;;;5.53;3.95;;;;;;;;;;5089000;28;20058;-85
2022/06/05 09:02:26;;;;;;;9.82;4.38;;;;;;;;;;5090048;28;20054;-85
2022/06/05 09:05:00;;;;;;;6.78;3.75;;;;;;;;;;5086412;28;20383;-85
2022/06/05 09:07:38;;;;;;;6.82;4.03;;;;;;;;;;5089460;28;20077;-86
2022/06/05 09:10:13;;;;;;;7.15;3.97;;;;;;;;;;5087415;28;20031;-85
2022/06/05 09:12:45;;;;;;;8.50;3.72;;;;;;;;;;5090057;28;20028;-85
2022/06/05 09:15:17;;;;;;;7.85;3.20;;;;;;;;;;5089512;28;20047;-86
2022/06/05 09:17:54;;;;;;;4.68;3.00;;;;;;;;;;5089151;28;20062;-85
2022/06/05 09:20:29;;;;;;;11.27;3.78;;;;;;;;;;5086841;28;20063;-86
2022/06/05 09:22:59;;;;;;;7.53;3.60;;;;;;;;;;5088670;28;20530;-86
2022/06/05 09:25:40;;;;;;;5.05;3.40;;;;;;;;;;5087907;28;20452;-86
2022/06/05 09:28:24;;;;;;;4.53;2.78;;;;;;;;;;5085316;28;20046;-85
2022/06/05 09:31:27;;;;;;;5.55;3.13;;;;;;;;;;5085686;28;20027;-82
2022/06/05 09:33:56;;;;;;;7.32;3.15;;;;;;;;;;5069375;28;20404;-82
2022/06/05 09:36:26;;;;;;;12.80;6.95;;;;;;;;;;5089112;28;20124;-83
2022/06/05 09:39:01;;;;;;;5.07;3.85;;;;;;;;;;5085787;28;20149;-81
2022/06/05 09:41:52;;;;;;;5.55;4.07;;;;;;;;;;5084918;28;20077;-82
2022/06/05 09:44:43;;;;;;;6.07;3.60;;;;;;;;;;5087866;28;20020;-82
2022/06/05 09:47:20;;;;;;;7.07;3.28;;;;;;;;;;5086250;28;20055;-82
2022/06/05 09:49:50;;;;;;;4.30;3.05;;;;;;;;;;5088275;28;20564;-83
2022/06/05 09:52:25;;;;;;;4.20;2.65;;;;;;;;;;5087919;28;20464;-81
2022/06/05 09:55:17;;;;;;;6.88;3.08;;;;;;;;;;5089414;28;20024;-82
2022/06/05 10:00:55;;;;;;;6.05;3.25;;;;;;;;;;5085203;28;20035;-83
2022/06/05 10:03:37;;;;;;;5.82;3.35;;;;;;;;;;5088300;28;20028;-85
2022/06/05 10:06:14;;;;;;;5.00;3.38;;;;;;;;;;5093107;28;20031;-84
2022/06/05 10:08:46;;;;;;;4.07;3.15;;;;;;;;;;5092571;28;20100;-89
2022/06/05 10:11:40;;;;;;;8.55;3.08;;;;;;;;;;5101062;28;20043;-85
2022/06/05 10:14:28;;;;;;;4.88;2.80;;;;;;;;;;5079915;28;20597;-86
2022/06/05 10:17:11;;;;;;;6.15;3.22;;;;;;;;;;5089420;28;20042;-84
2022/06/05 10:19:56;;;;;;;5.13;2.80;;;;;;;;;;5091508;28;20028;-90
2022/06/05 10:22:41;;;;;;;7.00;3.55;;;;;;;;;;5091161;28;20031;-90
2022/06/05 10:25:35;;;;;;;6.22;3.03;;;;;;;;;;5094024;28;20028;-86
2022/06/05 10:28:02;;;;;;;8.60;3.35;;;;;;;;;;5089458;28;20403;-84
2022/06/05 10:30:33;;;;;;;7.28;3.95;;;;;;;;;;5087345;28;20024;-84
2022/06/05 10:33:23;;;;;;;5.88;3.00;;;;;;;;;;5084154;28;20071;-82
2022/06/05 10:36:01;;;;;;;5.60;3.70;;;;;;;;;;5088863;28;20166;-85
2022/06/05 10:39:00;;;;;;;6.25;3.30;;;;;;;;;;5086460;28;20028;-82
2022/06/05 10:41:25;;;;;;;9.55;3.85;;;;;;;;;;5084947;28;20032;-81
2022/06/05 10:44:20;;;;;;;5.55;3.28;;;;;;;;;;5082814;28;20050;-82
2022/06/05 10:47:10;;;;;;;3.92;2.88;;;;;;;;;;5087243;28;20028;-81
2022/06/05 10:50:08;;;;;;;5.25;2.90;;;;;;;;;;5083213;28;20372;-81
2022/06/05 10:52:43;;;;;;;4.43;3.60;;;;;;;;;;5084570;28;20031;-82
2022/06/05 10:55:30;;;;;;;5.68;3.50;;;;;;;;;;5091107;28;20527;-81
2022/06/05 10:58:21;;;;;;;5.57;3.42;;;;;;;;;;5088887;28;20024;-82
2022/06/05 11:00:49;;;;;;;3.83;3.00;;;;;;;;;;5088174;28;20057;-82
2022/06/05 11:03:27;;;;;;;4.78;3.35;;;;;;;;;;5084061;28;20232;-81
2022/06/05 11:06:40;;;;;;;7.00;3.40;;;;;;;;;;5087654;28;20110;-81
2022/06/05 11:09:39;;;;;;;4.72;3.03;;;;;;;;;;5082265;28;20045;-82
2022/06/05 11:15:06;;;;;;;4.97;3.78;;;;;;;;;;5088705;28;20396;-84
2022/06/05 11:17:35;;;;;;;3.60;2.95;;;;;;;;;;5086863;28;20020;-82
2022/06/05 11:20:17;;;;;;;4.35;3.05;;;;;;;;;;5084047;28;20027;-83
2022/06/05 11:23:01;;;;;;;4.10;2.97;;;;;;;;;;5088365;28;20107;-83
2022/06/05 11:25:36;;;;;;;6.47;3.03;;;;;;;;;;5083294;28;20026;-80
2022/06/05 11:28:23;;;;;;;6.40;3.10;;;;;;;;;;5088264;28;20050;-79
2022/06/05 11:31:17;;;;;;;5.70;2.85;;;;;;;;;;5083217;28;20069;-81
2022/06/05 11:34:04;;;;;;;5.50;2.75;;;;;;;;;;5086331;28;20089;-83
2022/06/05 11:36:41;;;;;;;4.63;3.17;;;;;;;;;;5085345;28;20032;-83
2022/06/05 11:39:29;;;;;;;3.90;2.63;;;;;;;;;;5086959;28;20036;-82
2022/06/05 11:42:12;;;;;;;3.67;2.50;;;;;;;;;;5102690;28;20067;-85
2022/06/05 11:45:05;;;;;;;17.27;12.43;;;;;;;;;;5086164;28;20373;-82
2022/06/05 11:47:45;;;;;;;14.68;13.18;;;;;;;;;;5086696;28;20036;-81
2022/06/05 11:50:23;;;;;;;4.47;3.03;;;;;;;;;;5084527;28;20363;-81
2022/06/05 11:53:01;;;;;;;9.20;3.05;;;;;;;;;;5090776;28;20024;-82
2022/06/05 11:55:40;;;;;;;7.15;2.63;;;;;;;;;;5089336;28;20114;-82
2022/06/05 11:58:17;;;;;;;3.15;2.47;;;;;;;;;;5084997;28;20043;-82
2022/06/05 12:00:50;;;;;;;3.30;2.03;;;;;;;;;;5086292;28;20478;-80
2022/06/05 12:03:53;;;;;;;2.35;1.60;;;;;;;;;;5084411;28;20042;-83
2022/06/05 12:06:32;;;;;;;4.35;1.83;;;;;;;;;;5095728;28;20041;-82
2022/06/05 12:09:01;;;;;;;2.70;2.00;;;;;;;;;;5084603;28;20023;-85
2022/06/05 12:11:33;;;;;;;4.43;2.60;;;;;;;;;;5085483;28;20024;-82
2022/06/05 12:14:24;;;;;;;4.97;2.78;;;;;;;;;;5082738;28;20441;-81
2022/06/05 12:17:17;;;;;;;5.05;2.90;;;;;;;;;;5084586;28;20055;-82
2022/06/05 12:19:57;;;;;;;4.47;2.50;;;;;;;;;;5082824;28;20031;-82
2022/06/05 12:22:45;;;;;;;5.00;2.20;;;;;;;;;;5082004;28;20028;-83
2022/06/05 12:25:35;;;;;;;4.35;2.30;;;;;;;;;;5080715;28;20034;-80
2022/06/05 12:28:15;;;;;;;6.25;5.25;;;;;;;;;;5080692;28;20033;-84
2022/06/05 12:30:49;;;;;;;4.25;2.00;;;;;;;;;;5089350;28;20113;-82
2022/06/05 12:33:20;;;;;;;5.68;2.28;;;;;;;;;;5084235;28;20049;-82
2022/06/05 12:35:54;;;;;;;4.15;2.20;;;;;;;;;;5089014;28;20443;-83
2022/06/05 12:38:44;;;;;;;4.00;2.90;;;;;;;;;;5086949;28;20023;-84
2022/06/05 12:41:15;;;;;;;5.45;2.50;;;;;;;;;;5086210;28;20471;-81
2022/06/05 12:43:50;;;;;;;5.35;2.80;;;;;;;;;;5089098;28;20032;-83
2022/06/05 12:46:30;;;;;;;3.63;2.45;;;;;;;;;;5081508;28;20545;-81
2022/06/05 12:49:23;;;;;;;6.25;4.18;;;;;;;;;;5087596;28;20027;-83
2022/06/05 12:52:14;;;;;;;4.45;2.50;;;;;;;;;;5086775;28;20028;-82
2022/06/05 12:54:53;;;;;;;4.65;2.40;;;;;;;;;;5084419;28;20024;-82
2022/06/05 12:57:26;;;;;;;7.30;2.60;;;;;;;;;;5088211;28;20032;-83
2022/06/05 12:59:59;;;;;;;4.95;3.30;;;;;;;;;;5089887;28;20032;-83
2022/06/05 13:02:33;;;;;;;4.95;3.00;;;;;;;;;;5088131;28;20027;-81
2022/06/05 13:05:11;;;;;;;4.72;2.70;;;;;;;;;;5087196;28;20063;-85
2022/06/05 13:07:49;;;;;;;5.75;3.00;;;;;;;;;;5088009;28;20437;-82
2022/06/05 13:10:36;;;;;;;13.82;11.05;;;;;;;;;;5087788;28;20058;-82
2022/06/05 13:13:19;;;;;;;6.68;5.95;;;;;;;;;;5087099;28;20020;-85
2022/06/05 13:15:45;;;;;;;4.63;2.58;;;;;;;;;;5086782;28;20051;-81
2022/06/05 13:18:44;;;;;;;3.20;2.63;;;;;;;;;;5085025;28;20487;-82
2022/06/05 13:21:36;;;;;;;5.93;2.78;;;;;;;;;;5083577;28;20024;-83
2022/06/05 13:24:34;;;;;;;6.63;2.60;;;;;;;;;;5113182;28;20028;-80
2022/06/05 13:27:14;;;;;;;3.67;2.47;;;;;;;;;;5074101;28;20042;-81
2022/06/05 13:29:47;;;;;;;3.58;2.40;;;;;;;;;;5089488;28;20035;-80
2022/06/05 13:32:19;;;;;;;5.40;2.80;;;;;;;;;;5093530;28;20044;-83
2022/06/05 13:34:56;;;;;;;6.30;2.60;;;;;;;;;;5095501;28;20103;-85
2022/06/05 13:37:41;;;;;;;6.63;4.47;;;;;;;;;;5087259;28;20028;-88
2022/06/05 13:40:14;;;;;;;4.03;2.03;;;;;;;;;;5094979;28;20020;-84
2022/06/05 13:42:41;;;;;;;6.22;2.90;;;;;;;;;;5092517;28;20027;-86
2022/06/05 13:45:21;;;;;;;5.40;2.53;;;;;;;;;;5091829;28;20031;-85
2022/06/05 13:48:00;;;;;;;4.20;2.58;;;;;;;;;;5095295;28;20111;-86
2022/06/05 13:50:39;;;;;;;3.75;2.58;;;;;;;;;;5086327;28;20638;-86
2022/06/05 13:53:16;;;;;;;4.68;2.30;;;;;;;;;;5096484;28;20019;-87
2022/06/05 13:55:55;;;;;;;8.57;2.88;;;;;;;;;;5093924;28;20028;-88
2022/06/05 13:58:35;;;;;;;4.25;2.70;;;;;;;;;;5092734;28;20111;-87
2022/06/05 14:01:32;;;;;;;6.07;2.65;;;;;;;;;;5088396;28;20023;-86
2022/06/05 14:04:31;;;;;;;4.93;2.70;;;;;;;;;;5090142;28;20471;-89
2022/06/05 14:07:12;;;;;;;3.13;2.20;;;;;;;;;;5064484;28;20503;-86
2022/06/05 14:09:45;;;;;;;2.70;2.25;;;;;;;;;;5094097;28;20024;-87
2022/06/05 14:12:26;;;;;;;3.88;2.42;;;;;;;;;;5087663;28;20020;-88
2022/06/05 14:14:52;;;;;;;7.45;2.67;;;;;;;;;;5091284;28;20027;-88
2022/06/05 14:17:32;;;;;;;3.53;2.30;;;;;;;;;;5089918;28;20024;-87
2022/06/05 14:20:05;;;;;;;5.65;2.35;;;;;;;;;;5088339;28;20031;-87
2022/06/05 14:22:58;;;;;;;5.47;2.50;;;;;;;;;;5088014;28;20365;-88
2022/06/05 14:25:40;;;;;;;2.65;2.00;;;;;;;;;;5122252;27;20044;-86
2022/06/05 14:28:12;;;;;;;3.50;2.10;;;;;;;;;;5091099;28;20054;-87
2022/06/05 14:30:59;;;;;;;3.20;2.08;;;;;;;;;;5094481;28;20153;-88
2022/06/05 14:33:32;;;;;;;3.50;2.08;;;;;;;;;;5094866;28;20039;-87
2022/06/05 14:36:02;;;;;;;2.90;1.80;;;;;;;;;;5095219;28;20094;-87
2022/06/05 14:38:42;;;;;;;3.97;1.90;;;;;;;;;;5093864;28;20055;-85
2022/06/05 14:41:20;;;;;;;2.78;1.80;;;;;;;;;;5093988;28;20035;-86
2022/06/05 14:43:54;;;;;;;3.15;1.95;;;;;;;;;;5095165;28;20119;-88
2022/06/05 14:46:29;;;;;;;4.40;1.88;;;;;;;;;;5094125;28;20028;-85
2022/06/05 14:49:45;;;;;;;3.40;1.90;;;;;;;;;;5090236;28;20027;-85
2022/06/05 14:52:47;;;;;;;3.03;2.08;;;;;;;;;;5082049;28;20042;-87
2022/06/05 14:58:27;;;;;;;2.53;1.88;;;;;;;;;;5093502;28;20039;-86
2022/06/05 15:01:06;;;;;;;4.22;2.30;;;;;;;;;;5092269;28;20106;-86
2022/06/05 15:03:50;;;;;;;4.70;2.00;;;;;;;;;;5094896;28;20020;-86
2022/06/05 15:06:24;;;;;;;4.32;2.22;;;;;;;;;;5094499;28;20073;-86
2022/06/05 15:09:05;;;;;;;5.95;2.38;;;;;;;;;;5094813;28;20050;-87
2022/06/05 15:11:44;;;;;;;4.15;2.60;;;;;;;;;;5093127;28;20042;-85
2022/06/05 15:15:02;;;;;;;3.30;2.60;;;;;;;;;;5092916;28;20036;-86
2022/06/05 15:17:37;;;;;;;5.50;2.53;;;;;;;;;;5083799;28;20406;-86
2022/06/05 15:20:06;;;;;;;6.85;2.40;;;;;;;;;;5094675;28;20088;-85
2022/06/05 15:22:50;;;;;;;3.87;2.60;;;;;;;;;;5092737;28;20090;-84
2022/06/05 15:25:32;;;;;;;3.97;2.30;;;;;;;;;;5093584;28;20028;-87
2022/06/05 15:28:34;;;;;;;2.83;2.10;;;;;;;;;;5093756;28;20031;-86
2022/06/05 15:31:18;;;;;;;6.97;2.63;;;;;;;;;;5092937;28;20028;-86
2022/06/05 15:34:06;;;;;;;4.45;2.47;;;;;;;;;;5094134;28;20496;-85
2022/06/05 15:37:03;;;;;;;4.05;2.35;;;;;;;;;;5092267;28;20468;-87
2022/06/05 15:39:38;;;;;;;3.53;2.40;;;;;;;;;;5090555;28;20066;-86
2022/06/05 15:42:15;;;;;;;4.80;2.53;;;;;;;;;;5094021;28;20050;-85
2022/06/05 15:44:43;;;;;;;3.67;2.53;;;;;;;;;;5091004;28;20031;-85
2022/06/05 15:47:17;;;;;;;6.53;2.53;;;;;;;;;;5093494;28;20085;-86
2022/06/05 15:49:58;;;;;;;5.72;2.58;;;;;;;;;;5093416;28;20047;-86
2022/06/05 15:52:26;;;;;;;5.10;2.40;;;;;;;;;;5094099;28;20095;-87